Time;durP1;ratioP1;P1;durP2;ratioP2;P2;SDS_P1;SDS_P2;PMS_P1;PMS_P2;Temp;Humidity;BMP_temperature;BMP_pressure;BME280_temperature;BME280_humidity;BME280_pressure;Samples;Min_cycle;Max_cycle;Signal;HPM_P1;HPM_P2
2022/07/19 00:01:43;;;;;;;2.92;1.65;;;27.70;42.90;;;;;;4821390;29;20524;-78
2022/07/19 00:04:09;;;;;;;2.70;1.80;;;27.70;43.00;;;;;;4818619;29;20046;-78
2022/07/19 00:06:35;;;;;;;2.20;1.70;;;27.60;42.90;;;;;;4816849;29;20557;-76
2022/07/19 00:09:01;;;;;;;2.30;2.10;;;27.60;42.90;;;;;;4817465;29;20123;-78
2022/07/19 00:11:27;;;;;;;3.25;2.20;;;27.60;42.90;;;;;;4815415;29;20062;-76
2022/07/19 00:13:53;;;;;;;2.40;2.20;;;27.60;42.90;;;;;;4818610;29;20501;-79
2022/07/19 00:16:20;;;;;;;2.20;2.00;;;27.50;42.90;;;;;;4816655;29;20037;-80
2022/07/19 00:18:46;;;;;;;2.42;1.70;;;27.50;42.90;;;;;;4817058;29;20034;-79
2022/07/19 00:21:12;;;;;;;3.17;1.90;;;27.50;42.90;;;;;;4813253;29;20134;-79
2022/07/19 00:23:38;;;;;;;4.38;2.15;;;27.50;42.90;;;;;;4816925;29;20570;-79
2022/07/19 00:26:04;;;;;;;2.53;2.15;;;27.40;42.90;;;;;;4797301;29;20042;-79
2022/07/19 00:28:30;;;;;;;2.58;1.40;;;27.40;42.90;;;;;;4809763;29;20053;-79
2022/07/19 00:30:56;;;;;;;2.50;2.08;;;27.40;43.00;;;;;;4816804;29;20426;-78
2022/07/19 00:33:22;;;;;;;2.60;1.88;;;27.30;42.90;;;;;;4814558;29;20046;-78
2022/07/19 00:35:48;;;;;;;2.28;1.95;;;27.30;43.00;;;;;;4814064;29;20445;-79
2022/07/19 00:38:14;;;;;;;6.90;2.78;;;27.20;42.90;;;;;;4813990;29;20042;-77
2022/07/19 00:40:41;;;;;;;2.20;2.00;;;27.20;42.90;;;;;;4813745;29;20050;-77
2022/07/19 00:43:09;;;;;;;3.67;2.08;;;27.20;43.00;;;;;;4816644;29;20046;-77
2022/07/19 00:45:36;;;;;;;2.20;1.70;;;27.10;42.90;;;;;;4817358;29;20034;-77
2022/07/19 00:48:03;;;;;;;3.25;1.90;;;27.10;43.00;;;;;;4815739;29;20099;-78
2022/07/19 00:50:29;;;;;;;1.90;1.70;;;27.10;43.00;;;;;;4816838;29;20045;-77
2022/07/19 00:53:00;;;;;;;2.45;2.22;;;27.00;43.00;;;;;;4815014;29;20046;-79
2022/07/19 00:55:31;;;;;;;2.53;1.92;;;27.00;43.00;;;;;;4813492;29;20162;-79
2022/07/19 00:57:58;;;;;;;2.50;1.70;;;26.90;43.00;;;;;;4806318;29;20541;-78
2022/07/19 01:00:26;;;;;;;3.15;2.05;;;26.90;43.10;;;;;;4814758;29;20389;-79
2022/07/19 01:02:52;;;;;;;1.80;1.70;;;26.90;43.10;;;;;;4813904;29;20043;-79
2022/07/19 01:05:19;;;;;;;3.28;1.90;;;26.80;43.00;;;;;;4796967;29;20116;-79
2022/07/19 01:07:46;;;;;;;2.75;2.38;;;26.80;43.10;;;;;;4797555;29;20058;-78
2022/07/19 01:10:14;;;;;;;1.75;1.45;;;26.80;43.10;;;;;;4813645;29;20030;-78
2022/07/19 01:12:41;;;;;;;2.58;1.73;;;26.70;43.10;;;;;;4813153;29;20050;-78
2022/07/19 01:15:16;;;;;;;2.28;2.05;;;26.70;43.10;;;;;;4817058;29;20463;-78
2022/07/19 01:17:42;;;;;;;2.72;1.90;;;26.60;43.20;;;;;;4814649;29;20026;-78
2022/07/19 01:20:08;;;;;;;2.25;2.03;;;26.60;43.20;;;;;;4814992;29;20442;-79
2022/07/19 01:22:34;;;;;;;2.85;1.88;;;26.60;43.20;;;;;;4807518;29;20038;-78
2022/07/19 01:25:00;;;;;;;2.08;1.83;;;26.60;43.20;;;;;;4815074;29;20041;-78
2022/07/19 01:27:26;;;;;;;2.35;2.15;;;26.50;43.20;;;;;;4816702;29;20065;-77
2022/07/19 01:29:52;;;;;;;2.38;2.08;;;26.50;43.30;;;;;;4816884;29;20077;-79
2022/07/19 01:32:19;;;;;;;3.10;1.90;;;26.50;43.30;;;;;;4815302;29;20496;-79
2022/07/19 01:34:45;;;;;;;2.25;2.05;;;26.40;43.30;;;;;;4815654;29;21050;-78
2022/07/19 01:37:11;;;;;;;2.00;1.70;;;26.40;43.30;;;;;;4815982;29;20471;-78
2022/07/19 01:39:37;;;;;;;2.33;2.13;;;26.40;43.40;;;;;;4813199;29;20120;-78
2022/07/19 01:42:02;;;;;;;2.28;1.95;;;26.30;43.40;;;;;;4815367;29;20117;-78
2022/07/19 01:44:28;;;;;;;2.40;2.08;;;26.30;43.50;;;;;;4813429;29;20034;-78
2022/07/19 01:46:54;;;;;;;2.15;1.92;;;26.30;43.50;;;;;;4813134;29;20661;-79
2022/07/19 01:49:20;;;;;;;3.08;2.30;;;26.20;43.50;;;;;;4814160;29;20030;-77
2022/07/19 01:51:46;;;;;;;2.58;2.13;;;26.20;43.60;;;;;;4814421;29;20046;-78
2022/07/19 01:54:12;;;;;;;2.50;2.10;;;26.20;43.60;;;;;;4805117;29;20269;-79
2022/07/19 01:56:42;;;;;;;1.73;1.52;;;26.10;43.60;;;;;;4811592;29;20406;-78
2022/07/19 01:59:08;;;;;;;2.28;2.05;;;26.10;43.70;;;;;;4815653;29;20233;-78
2022/07/19 02:01:34;;;;;;;2.38;1.83;;;26.10;43.80;;;;;;4815025;29;20034;-79
2022/07/19 02:04:00;;;;;;;2.50;1.90;;;26.10;43.80;;;;;;4815053;29;20452;-78
2022/07/19 02:06:26;;;;;;;2.83;2.17;;;26.00;43.70;;;;;;4815782;29;20366;-79
2022/07/19 02:08:52;;;;;;;2.40;1.88;;;26.00;43.80;;;;;;4815346;29;20045;-78
2022/07/19 02:11:36;;;;;;;2.20;2.05;;;26.00;43.80;;;;;;4810955;29;20030;-78
2022/07/19 02:14:08;;;;;;;3.85;2.42;;;26.00;43.90;;;;;;4816281;29;20095;-79
2022/07/19 02:16:35;;;;;;;2.70;2.47;;;25.90;43.90;;;;;;4816343;29;20477;-79
2022/07/19 02:19:01;;;;;;;2.42;2.20;;;25.90;43.90;;;;;;4800302;29;20074;-78
2022/07/19 02:21:27;;;;;;;2.47;1.88;;;25.80;43.90;;;;;;4816719;29;20105;-79
2022/07/19 02:23:53;;;;;;;2.35;2.05;;;25.80;44.00;;;;;;4806147;29;20574;-78
2022/07/19 02:26:19;;;;;;;3.35;2.30;;;25.80;44.00;;;;;;4814530;29;20042;-78
2022/07/19 02:28:45;;;;;;;2.42;1.90;;;25.70;44.00;;;;;;4815489;29;20095;-78
2022/07/19 02:31:11;;;;;;;3.25;2.15;;;25.70;44.10;;;;;;4815606;29;20022;-79
2022/07/19 02:33:36;;;;;;;2.08;1.67;;;25.60;44.10;;;;;;4814640;29;20075;-79
2022/07/19 02:36:03;;;;;;;4.32;2.40;;;25.60;44.20;;;;;;4813707;29;20131;-79
2022/07/19 02:38:30;;;;;;;3.20;2.35;;;25.60;44.20;;;;;;4813011;29;20153;-78
2022/07/19 02:40:56;;;;;;;4.55;2.40;;;25.60;44.30;;;;;;4813220;29;20117;-79
2022/07/19 02:43:22;;;;;;;8.52;2.20;;;25.50;44.30;;;;;;4814606;29;20623;-78
2022/07/19 02:45:48;;;;;;;2.42;2.22;;;25.50;44.40;;;;;;4816437;29;20113;-78
2022/07/19 02:48:14;;;;;;;2.25;1.92;;;25.40;44.40;;;;;;4816321;29;20066;-78
2022/07/19 02:50:41;;;;;;;2.70;1.80;;;25.40;44.50;;;;;;4817468;29;20078;-78
2022/07/19 02:53:07;;;;;;;4.57;1.90;;;25.40;44.60;;;;;;4800934;29;20038;-79
2022/07/19 02:55:33;;;;;;;2.63;2.42;;;25.40;44.70;;;;;;4807904;29;20026;-79
2022/07/19 02:57:59;;;;;;;4.53;1.85;;;25.30;44.60;;;;;;4813322;29;20053;-78
2022/07/19 03:00:25;;;;;;;3.78;2.72;;;25.30;44.80;;;;;;4814760;29;20397;-78
2022/07/19 03:02:51;;;;;;;4.20;2.17;;;25.30;44.80;;;;;;4816776;29;20027;-78
2022/07/19 03:05:17;;;;;;;2.75;2.05;;;25.20;44.80;;;;;;4816110;29;20041;-78
2022/07/19 03:07:43;;;;;;;2.58;2.28;;;25.20;44.90;;;;;;4815263;29;20034;-78
2022/07/19 03:10:09;;;;;;;2.42;2.20;;;25.20;44.90;;;;;;4815760;29;20397;-79
2022/07/19 03:12:35;;;;;;;3.92;2.15;;;25.20;45.00;;;;;;4817282;29;20043;-78
2022/07/19 03:15:02;;;;;;;3.28;2.25;;;25.10;45.10;;;;;;4818359;29;20034;-77
2022/07/19 03:17:28;;;;;;;2.63;2.15;;;25.10;45.10;;;;;;4816505;29;20113;-78
2022/07/19 03:19:54;;;;;;;2.88;2.22;;;25.10;45.10;;;;;;4818072;29;20167;-77
2022/07/19 03:22:20;;;;;;;3.45;2.30;;;25.10;45.20;;;;;;4818391;29;20030;-78
2022/07/19 03:24:45;;;;;;;3.65;2.70;;;25.00;45.20;;;;;;4818675;29;20034;-78
2022/07/19 03:27:11;;;;;;;2.47;2.28;;;25.00;45.20;;;;;;4812453;29;20070;-78
2022/07/19 03:29:37;;;;;;;2.67;2.17;;;25.00;45.90;;;;;;4821512;29;20404;-78
2022/07/19 03:32:04;;;;;;;5.35;2.40;;;25.00;45.30;;;;;;4817254;29;20166;-77
2022/07/19 03:34:30;;;;;;;2.30;2.10;;;25.00;45.40;;;;;;4822228;29;20449;-78
2022/07/19 03:36:56;;;;;;;3.80;2.58;;;25.00;45.40;;;;;;4816956;29;20050;-79
2022/07/19 03:39:22;;;;;;;2.33;2.10;;;25.00;45.50;;;;;;4822460;29;20040;-79
2022/07/19 03:41:48;;;;;;;2.60;2.30;;;24.90;45.30;;;;;;4821288;29;20054;-78
2022/07/19 03:44:14;;;;;;;2.53;2.33;;;24.90;45.40;;;;;;4823106;29;20114;-78
2022/07/19 03:46:39;;;;;;;3.75;2.08;;;24.90;45.50;;;;;;4819512;29;20456;-77
2022/07/19 03:49:05;;;;;;;2.85;2.30;;;24.80;45.30;;;;;;4803154;29;20750;-78
2022/07/19 03:51:31;;;;;;;3.00;2.28;;;24.80;45.40;;;;;;4819417;29;20042;-77
2022/07/19 03:53:57;;;;;;;2.25;2.05;;;24.80;45.50;;;;;;4817832;29;20030;-78
2022/07/19 03:56:23;;;;;;;3.22;2.45;;;24.80;45.50;;;;;;4809376;29;20540;-77
2022/07/19 03:58:49;;;;;;;3.45;2.50;;;24.70;45.40;;;;;;4817048;29;20183;-78
2022/07/19 04:01:16;;;;;;;3.80;2.85;;;24.70;45.50;;;;;;4816846;29;20164;-78
2022/07/19 04:03:42;;;;;;;2.53;2.30;;;24.70;45.60;;;;;;4818938;29;20080;-78
2022/07/19 04:06:10;;;;;;;3.88;2.30;;;24.60;45.50;;;;;;4816169;29;20086;-78
2022/07/19 04:08:36;;;;;;;2.45;2.20;;;24.60;45.60;;;;;;4817477;29;20030;-79
2022/07/19 04:11:03;;;;;;;4.22;2.40;;;24.60;45.70;;;;;;4815067;29;20090;-79
2022/07/19 04:13:32;;;;;;;2.65;2.40;;;24.50;45.60;;;;;;4819295;29;20038;-79
2022/07/19 04:15:58;;;;;;;3.25;2.17;;;24.50;45.70;;;;;;4817250;29;20050;-79
2022/07/19 04:18:24;;;;;;;4.28;2.88;;;24.50;45.70;;;;;;4818910;29;20034;-79
2022/07/19 04:20:50;;;;;;;2.83;2.53;;;24.40;45.60;;;;;;4815394;29;20067;-79
2022/07/19 04:23:16;;;;;;;2.80;2.53;;;24.40;46.40;;;;;;4815557;29;20065;-79
2022/07/19 04:25:41;;;;;;;2.70;2.20;;;24.40;45.80;;;;;;4817391;29;20125;-79
2022/07/19 04:28:07;;;;;;;3.75;2.83;;;24.40;45.90;;;;;;4811431;29;20119;-80
2022/07/19 04:30:33;;;;;;;3.47;2.20;;;24.30;45.80;;;;;;4815889;29;20045;-79
2022/07/19 04:32:59;;;;;;;2.97;2.22;;;24.30;45.90;;;;;;4817819;29;20045;-79
2022/07/19 04:35:25;;;;;;;2.40;2.08;;;24.30;46.50;;;;;;4784079;29;20098;-79
2022/07/19 04:37:51;;;;;;;5.18;2.58;;;24.30;46.00;;;;;;4815781;29;20038;-79
2022/07/19 04:40:17;;;;;;;3.28;2.50;;;24.20;45.90;;;;;;4815002;29;20754;-79
2022/07/19 04:42:43;;;;;;;2.72;2.33;;;24.20;45.90;;;;;;4817182;29;20027;-79
2022/07/19 04:45:10;;;;;;;2.42;2.20;;;24.20;45.90;;;;;;4815526;29;20096;-79
2022/07/19 04:47:36;;;;;;;3.28;2.40;;;24.20;46.00;;;;;;4814036;29;20077;-79
2022/07/19 04:50:02;;;;;;;3.15;2.38;;;24.20;46.00;;;;;;4816398;29;20034;-79
2022/07/19 04:52:28;;;;;;;2.80;2.45;;;24.20;46.00;;;;;;4816446;29;20053;-79
2022/07/19 04:54:54;;;;;;;3.20;2.40;;;24.30;46.20;;;;;;4815596;29;20034;-79
2022/07/19 04:57:19;;;;;;;3.65;2.75;;;24.30;46.10;;;;;;4811767;29;20058;-78
2022/07/19 04:59:45;;;;;;;3.88;2.15;;;24.30;46.10;;;;;;4811736;29;20174;-78
2022/07/19 05:02:11;;;;;;;2.38;2.10;;;24.40;46.20;;;;;;4817047;29;20095;-78
2022/07/19 05:04:37;;;;;;;2.72;2.45;;;24.40;46.20;;;;;;4814866;29;20535;-79
2022/07/19 05:07:03;;;;;;;5.40;2.30;;;24.50;46.30;;;;;;4820557;29;20042;-79
2022/07/19 05:09:29;;;;;;;4.18;2.40;;;24.50;46.20;;;;;;4814956;29;20030;-78
2022/07/19 05:11:56;;;;;;;2.70;2.20;;;24.50;46.10;;;;;;4817040;29;20095;-79
2022/07/19 05:14:22;;;;;;;3.15;2.53;;;24.60;46.30;;;;;;4816738;29;20045;-78
2022/07/19 05:16:49;;;;;;;2.97;2.70;;;24.70;46.40;;;;;;4815100;29;20046;-79
2022/07/19 05:19:16;;;;;;;5.68;2.25;;;24.80;46.40;;;;;;4816522;29;20095;-78
2022/07/19 05:21:42;;;;;;;3.83;2.80;;;24.80;46.30;;;;;;4815546;29;20038;-78
2022/07/19 05:24:08;;;;;;;3.15;2.47;;;24.90;46.40;;;;;;4815712;29;20077;-82
2022/07/19 05:26:35;;;;;;;5.10;2.83;;;25.00;46.40;;;;;;4816610;29;20467;-92
2022/07/19 05:29:02;;;;;;;3.03;2.60;;;25.10;46.40;;;;;;4798239;29;20065;-81
2022/07/19 05:31:29;;;;;;;5.72;2.95;;;25.20;46.70;;;;;;4819607;29;20144;-80
2022/07/19 05:33:55;;;;;;;5.38;3.38;;;25.30;46.90;;;;;;4821810;29;20113;-82
2022/07/19 05:36:21;;;;;;;4.38;2.35;;;25.30;47.00;;;;;;4820315;29;20303;-80
2022/07/19 05:38:47;;;;;;;5.30;2.88;;;25.40;47.20;;;;;;4821892;29;20056;-80
2022/07/19 05:41:15;;;;;;;33.55;4.38;;;25.40;47.20;;;;;;4818582;29;20063;-89
2022/07/19 05:43:42;;;;;;;26.77;5.78;;;25.40;47.40;;;;;;4815971;29;20034;-87
2022/07/19 05:46:08;;;;;;;9.05;4.45;;;25.40;47.80;;;;;;4817037;29;20038;-83
2022/07/19 05:48:35;;;;;;;4.30;2.88;;;25.50;48.00;;;;;;4813849;29;20027;-81
2022/07/19 05:51:01;;;;;;;10.35;3.83;;;25.50;47.90;;;;;;4813396;29;20171;-81
2022/07/19 05:53:27;;;;;;;7.53;3.47;;;25.60;48.00;;;;;;4782564;29;20043;-81
2022/07/19 05:55:54;;;;;;;5.95;2.80;;;25.60;48.10;;;;;;4796485;29;20122;-84
2022/07/19 05:58:20;;;;;;;5.07;2.85;;;25.70;48.20;;;;;;4813817;29;20163;-83
2022/07/19 06:03:32;;;;;;;8.48;3.17;;;25.80;48.30;;;;;;4817273;29;20093;-81
2022/07/19 06:05:58;;;;;;;9.05;3.47;;;25.90;48.30;;;;;;4814580;29;20192;-80
2022/07/19 06:08:24;;;;;;;3.78;2.53;;;25.90;48.20;;;;;;4812033;29;20456;-81
2022/07/19 06:10:50;;;;;;;12.80;3.17;;;26.00;48.20;;;;;;4814407;29;20111;-82
2022/07/19 06:13:16;;;;;;;4.75;2.53;;;26.10;48.10;;;;;;4814089;29;20050;-81
2022/07/19 06:15:42;;;;;;;4.65;2.47;;;26.20;47.90;;;;;;4797648;29;20073;-82
2022/07/19 06:18:08;;;;;;;4.30;2.85;;;26.40;47.70;;;;;;4814974;29;20066;-82
2022/07/19 06:20:34;;;;;;;7.13;2.67;;;26.50;47.50;;;;;;4814945;29;20046;-88
2022/07/19 06:23:00;;;;;;;6.38;3.65;;;26.70;47.40;;;;;;4819236;29;20126;-87
2022/07/19 06:25:26;;;;;;;6.28;4.05;;;26.90;47.60;;;;;;4802332;29;20549;-89
2022/07/19 06:27:52;;;;;;;6.22;3.05;;;27.20;47.80;;;;;;4814452;29;20090;-83
2022/07/19 06:30:18;;;;;;;7.22;2.90;;;27.40;47.30;;;;;;4814057;29;20038;-81
2022/07/19 06:32:44;;;;;;;5.50;2.90;;;27.80;46.60;;;;;;4813199;29;20416;-80
2022/07/19 06:35:10;;;;;;;5.35;3.13;;;28.10;46.00;;;;;;4813140;29;20027;-82
2022/07/19 06:37:37;;;;;;;5.32;2.80;;;28.40;45.40;;;;;;4819907;29;20698;-81
2022/07/19 06:40:04;;;;;;;6.82;2.80;;;28.80;44.90;;;;;;4815677;29;20041;-80
2022/07/19 06:42:30;;;;;;;4.88;2.60;;;29.10;44.40;;;;;;4817072;29;20042;-81
2022/07/19 06:44:56;;;;;;;6.70;2.95;;;29.40;44.00;;;;;;4816405;29;20381;-80
2022/07/19 06:47:22;;;;;;;9.65;2.92;;;29.70;44.20;;;;;;4816627;29;20082;-80
2022/07/19 06:49:47;;;;;;;6.30;3.35;;;30.00;43.20;;;;;;4816415;29;20389;-80
2022/07/19 06:52:13;;;;;;;5.22;2.90;;;30.40;42.90;;;;;;4815729;29;20128;-80
2022/07/19 06:54:39;;;;;;;9.73;3.40;;;30.70;42.40;;;;;;4814128;29;20326;-89
2022/07/19 06:57:07;;;;;;;10.32;3.45;;;31.10;42.00;;;;;;4816196;29;20129;-86
2022/07/19 06:59:33;;;;;;;8.93;3.42;;;31.40;41.50;;;;;;4815616;29;20058;-85
2022/07/19 07:01:59;;;;;;;5.93;2.80;;;31.80;41.00;;;;;;4816442;29;20103;-84
2022/07/19 07:04:25;;;;;;;5.50;2.85;;;32.10;40.70;;;;;;4798966;29;20421;-83
2022/07/19 07:06:51;;;;;;;3.80;2.47;;;32.30;40.30;;;;;;4801252;29;20030;-83
2022/07/19 07:09:17;;;;;;;7.22;2.83;;;32.60;39.90;;;;;;4814322;29;20684;-83
2022/07/19 07:11:43;;;;;;;18.63;3.65;;;33.00;39.60;;;;;;4816531;29;20065;-86
2022/07/19 07:14:08;;;;;;;6.38;2.67;;;33.20;39.30;;;;;;4813683;29;20034;-82
2022/07/19 07:16:34;;;;;;;5.85;2.90;;;33.40;39.00;;;;;;4819488;29;20030;-83
2022/07/19 07:19:00;;;;;;;7.03;3.08;;;33.60;38.80;;;;;;4815698;29;20022;-83
2022/07/19 07:21:26;;;;;;;12.60;3.53;;;33.80;38.70;;;;;;4816455;29;20030;-84
2022/07/19 07:23:52;;;;;;;7.05;3.28;;;34.10;38.40;;;;;;4815468;29;20031;-83
2022/07/19 07:26:18;;;;;;;9.65;3.83;;;34.40;37.90;;;;;;4814781;29;20433;-83
2022/07/19 07:28:44;;;;;;;7.68;3.00;;;34.70;37.30;;;;;;4816132;29;20528;-82
2022/07/19 07:31:10;;;;;;;8.23;3.03;;;35.00;37.00;;;;;;4818341;29;20050;-84
2022/07/19 07:33:36;;;;;;;8.80;3.70;;;35.20;36.80;;;;;;4817410;29;20409;-82
2022/07/19 07:36:01;;;;;;;7.40;2.72;;;35.30;36.60;;;;;;4818423;29;20053;-81
2022/07/19 07:38:27;;;;;;;8.25;2.97;;;35.30;36.60;;;;;;4801125;29;20548;-81
2022/07/19 07:40:53;;;;;;;9.32;3.80;;;35.30;36.60;;;;;;4816626;29;20037;-81
2022/07/19 07:43:19;;;;;;;6.78;2.90;;;35.20;36.60;;;;;;4815441;29;20095;-81
2022/07/19 07:45:45;;;;;;;5.10;2.55;;;35.30;36.60;;;;;;4812957;29;20389;-81
2022/07/19 07:48:11;;;;;;;8.07;2.33;;;35.40;36.30;;;;;;4812795;29;20057;-81
2022/07/19 07:50:37;;;;;;;7.53;2.63;;;35.70;36.00;;;;;;4817656;29;20034;-81
2022/07/19 07:53:03;;;;;;;5.75;2.95;;;36.00;35.60;;;;;;4814896;29;20855;-81
2022/07/19 07:55:29;;;;;;;7.90;2.80;;;36.30;35.10;;;;;;4814379;29;20405;-81
2022/07/19 07:57:55;;;;;;;6.20;2.88;;;36.70;34.80;;;;;;4815907;29;20425;-81
2022/07/19 08:00:21;;;;;;;5.05;3.00;;;37.00;34.30;;;;;;4815224;29;20113;-81
2022/07/19 08:02:49;;;;;;;7.38;3.65;;;37.20;34.10;;;;;;4815173;29;20074;-81
2022/07/19 08:05:15;;;;;;;10.60;3.40;;;37.20;34.00;;;;;;4817511;29;20042;-82
2022/07/19 08:07:41;;;;;;;8.13;2.63;;;37.20;34.00;;;;;;4815604;29;20038;-82
2022/07/19 08:10:08;;;;;;;9.77;3.30;;;37.10;34.10;;;;;;4813658;29;20983;-80
2022/07/19 08:12:35;;;;;;;7.43;3.00;;;37.10;34.30;;;;;;4814371;29;20057;-81
2022/07/19 08:15:01;;;;;;;6.32;3.20;;;37.00;34.30;;;;;;4816015;29;20042;-81
2022/07/19 08:17:27;;;;;;;12.57;2.95;;;36.90;34.30;;;;;;4788992;29;20050;-80
2022/07/19 08:19:53;;;;;;;11.85;3.35;;;36.80;34.30;;;;;;4814574;29;20088;-81
2022/07/19 08:22:19;;;;;;;6.65;3.33;;;36.70;34.30;;;;;;4814036;29;20445;-80
2022/07/19 08:24:45;;;;;;;11.25;4.07;;;36.60;34.40;;;;;;4815000;29;20030;-79
2022/07/19 08:27:11;;;;;;;6.47;3.13;;;36.50;34.50;;;;;;4816416;29;20658;-81
2022/07/19 08:29:37;;;;;;;6.10;3.25;;;36.50;34.70;;;;;;4816931;29;20034;-81
2022/07/19 08:32:03;;;;;;;5.38;3.08;;;36.40;34.70;;;;;;4817746;29;20094;-80
2022/07/19 08:34:29;;;;;;;6.40;3.45;;;36.40;34.80;;;;;;4817924;29;20033;-80
2022/07/19 08:36:55;;;;;;;9.07;3.40;;;36.40;34.80;;;;;;4814798;29;20050;-81
2022/07/19 08:39:21;;;;;;;7.93;3.47;;;36.30;34.80;;;;;;4812865;29;20041;-80
2022/07/19 08:41:48;;;;;;;8.85;3.10;;;36.30;34.80;;;;;;4813390;29;20490;-80
2022/07/19 08:44:16;;;;;;;12.05;4.13;;;36.30;34.90;;;;;;4800087;29;20404;-81
2022/07/19 08:46:46;;;;;;;7.60;4.10;;;36.30;34.90;;;;;;4815653;29;20030;-83
2022/07/19 08:49:14;;;;;;;11.05;3.22;;;36.30;34.90;;;;;;4799707;29;20034;-81
2022/07/19 08:51:42;;;;;;;8.75;3.25;;;36.40;34.90;;;;;;4815405;29;20045;-80
2022/07/19 08:54:08;;;;;;;7.32;3.05;;;36.40;34.90;;;;;;4815003;29;20462;-79
2022/07/19 08:59:22;;;;;;;7.93;3.97;;;36.40;34.20;;;;;;4814775;29;20039;-80
2022/07/19 09:01:54;;;;;;;9.13;3.80;;;36.50;33.90;;;;;;4814480;29;20221;-80
2022/07/19 09:04:21;;;;;;;10.43;3.53;;;36.50;33.60;;;;;;4810303;29;20350;-79
2022/07/19 09:06:52;;;;;;;8.13;4.50;;;36.50;33.30;;;;;;4814610;29;20041;-79
2022/07/19 09:09:29;;;;;;;12.17;4.53;;;36.50;33.00;;;;;;4811458;29;20038;-78
2022/07/19 09:11:57;;;;;;;10.02;3.97;;;36.60;33.00;;;;;;4811456;29;20278;-81
2022/07/19 09:14:25;;;;;;;13.13;4.65;;;36.60;32.90;;;;;;4814108;29;20041;-80
2022/07/19 09:17:03;;;;;;;7.78;4.47;;;36.70;32.80;;;;;;4815724;29;20034;-79
2022/07/19 09:19:37;;;;;;;10.73;4.53;;;36.70;32.60;;;;;;4815140;29;20063;-84
2022/07/19 09:22:13;;;;;;;8.15;4.38;;;36.80;32.50;;;;;;4799466;29;20080;-82
2022/07/19 09:24:45;;;;;;;8.00;4.03;;;36.90;32.50;;;;;;4816598;29;20038;-82
2022/07/19 09:27:14;;;;;;;6.63;3.63;;;36.90;32.30;;;;;;4797774;29;20060;-83
2022/07/19 09:29:45;;;;;;;7.60;4.13;;;36.90;32.30;;;;;;4813862;29;20516;-84
2022/07/19 09:32:20;;;;;;;11.07;4.70;;;37.00;32.30;;;;;;4798148;29;20038;-84
2022/07/19 09:35:03;;;;;;;6.47;3.40;;;37.00;32.20;;;;;;4815459;29;20059;-79
2022/07/19 09:37:34;;;;;;;6.53;3.45;;;37.10;32.30;;;;;;4784609;29;20401;-80
2022/07/19 09:40:08;;;;;;;11.02;4.32;;;37.10;32.40;;;;;;4812835;29;20573;-80
2022/07/19 09:42:43;;;;;;;6.72;3.97;;;37.10;32.20;;;;;;4813857;29;20038;-79
2022/07/19 09:45:11;;;;;;;8.95;4.07;;;37.20;32.20;;;;;;4768050;29;20314;-85
2022/07/19 09:47:48;;;;;;;12.05;4.10;;;37.20;32.20;;;;;;4812300;29;20046;-81
2022/07/19 09:50:16;;;;;;;10.57;3.75;;;37.20;32.10;;;;;;4813452;29;20033;-80
2022/07/19 09:52:44;;;;;;;12.00;4.50;;;37.30;32.20;;;;;;4810069;29;20478;-80
2022/07/19 09:55:11;;;;;;;6.82;4.22;;;37.30;32.10;;;;;;4795292;29;20576;-84
2022/07/19 09:57:44;;;;;;;14.18;4.72;;;37.40;32.10;;;;;;4796901;29;20045;-84
2022/07/19 10:00:11;;;;;;;10.88;4.32;;;37.40;32.00;;;;;;4816165;29;20026;-82
2022/07/19 10:02:40;;;;;;;9.90;4.50;;;37.50;32.00;;;;;;4813665;29;20114;-79
2022/07/19 10:05:09;;;;;;;13.70;5.38;;;37.50;32.50;;;;;;4817930;29;20061;-80
2022/07/19 10:07:35;;;;;;;7.53;4.57;;;37.50;31.80;;;;;;4797735;29;20469;-84
2022/07/19 10:10:06;;;;;;;12.00;4.43;;;37.50;31.80;;;;;;4810710;29;20255;-81
2022/07/19 10:12:33;;;;;;;12.07;4.65;;;37.60;31.90;;;;;;4812919;29;20246;-81
2022/07/19 10:14:59;;;;;;;8.43;5.57;;;37.60;31.90;;;;;;4815673;29;20073;-80
2022/07/19 10:17:37;;;;;;;11.52;5.50;;;37.70;32.00;;;;;;4800284;29;20363;-95
2022/07/19 10:20:08;;;;;;;9.75;4.50;;;37.80;32.30;;;;;;4820164;29;20113;-83
2022/07/19 10:22:38;;;;;;;6.75;3.90;;;37.80;32.70;;;;;;4815429;29;20502;-87
2022/07/19 10:25:04;;;;;;;10.48;4.40;;;37.80;32.90;;;;;;4812618;29;20050;-86
2022/07/19 10:27:32;;;;;;;18.67;4.43;;;37.70;33.00;;;;;;4800848;29;20071;-79
2022/07/19 10:29:58;;;;;;;7.30;4.10;;;37.70;33.10;;;;;;4814268;29;20533;-79
2022/07/19 10:32:31;;;;;;;7.78;4.57;;;37.50;33.10;;;;;;4798436;29;20046;-82
2022/07/19 10:35:20;;;;;;;8.20;4.60;;;37.40;33.30;;;;;;4817501;29;20038;-84
2022/07/19 10:38:02;;;;;;;10.70;4.90;;;37.30;33.50;;;;;;4819868;29;20046;-79
2022/07/19 10:40:45;;;;;;;7.27;5.37;;;37.20;33.60;;;;;;4816765;29;20073;-79
2022/07/19 10:43:13;;;;;;;7.72;5.13;;;37.10;34.30;;;;;;4795948;29;20038;-79
2022/07/19 10:46:01;;;;;;;9.05;4.47;;;37.10;34.50;;;;;;4813189;29;20035;-80
2022/07/19 10:48:50;;;;;;;7.82;5.38;;;37.00;33.90;;;;;;4807543;29;20458;-79
2022/07/19 10:51:43;;;;;;;13.77;5.93;;;37.00;34.00;;;;;;4813790;29;20027;-80
2022/07/19 10:54:10;;;;;;;6.93;4.72;;;36.90;34.00;;;;;;4795685;29;20389;-82
2022/07/19 10:56:39;;;;;;;10.82;5.03;;;36.90;34.10;;;;;;4796461;29;20034;-81
2022/07/19 10:59:09;;;;;;;6.50;4.72;;;36.90;34.30;;;;;;4813753;29;20184;-83
2022/07/19 11:01:37;;;;;;;7.30;4.45;;;36.90;34.40;;;;;;4813195;29;20030;-78
2022/07/19 11:04:43;;;;;;;8.77;5.35;;;36.90;34.30;;;;;;4812588;29;20030;-79
2022/07/19 11:07:17;;;;;;;8.27;4.72;;;37.00;34.30;;;;;;4762264;29;20047;-80
2022/07/19 11:09:55;;;;;;;10.73;5.32;;;37.00;34.30;;;;;;4762188;30;20678;-79
2022/07/19 11:12:25;;;;;;;7.22;4.43;;;37.00;34.20;;;;;;4791937;29;20077;-79
2022/07/19 11:14:51;;;;;;;7.10;4.10;;;37.10;34.10;;;;;;4816847;29;20972;-78
2022/07/19 11:17:17;;;;;;;10.73;5.55;;;37.20;34.10;;;;;;4812488;29;20031;-79
2022/07/19 11:20:06;;;;;;;7.53;4.90;;;37.30;34.10;;;;;;4813850;29;20044;-82
2022/07/19 11:22:34;;;;;;;11.02;4.72;;;37.40;33.90;;;;;;4800209;29;20497;-84
2022/07/19 11:25:00;;;;;;;7.07;5.22;;;37.50;34.00;;;;;;4815692;29;20046;-80
2022/07/19 11:27:26;;;;;;;9.88;5.15;;;37.50;34.00;;;;;;4819302;29;20030;-80
2022/07/19 11:29:58;;;;;;;10.27;6.45;;;37.60;33.80;;;;;;4819800;29;20307;-80
2022/07/19 11:32:24;;;;;;;11.32;4.88;;;37.70;33.70;;;;;;4816834;29;20669;-79
2022/07/19 11:34:59;;;;;;;10.43;5.13;;;37.70;33.50;;;;;;4822135;29;20026;-86
2022/07/19 11:37:30;;;;;;;7.63;5.18;;;37.80;33.30;;;;;;4822682;29;20145;-84
2022/07/19 11:39:57;;;;;;;9.10;5.03;;;37.80;33.10;;;;;;4809032;29;20026;-84
2022/07/19 11:42:32;;;;;;;7.45;5.00;;;37.80;33.10;;;;;;4811247;29;20134;-86
2022/07/19 11:44:59;;;;;;;7.63;4.97;;;37.90;33.10;;;;;;4827785;29;20050;-80
2022/07/19 11:47:25;;;;;;;10.93;6.05;;;38.00;33.10;;;;;;4822801;29;20443;-80
2022/07/19 11:49:51;;;;;;;9.70;5.40;;;38.10;33.00;;;;;;4821137;29;20023;-80
2022/07/19 11:52:17;;;;;;;10.85;6.00;;;38.20;32.90;;;;;;4802596;29;20046;-81
2022/07/19 11:54:58;;;;;;;7.15;5.43;;;38.30;32.80;;;;;;4814586;29;20034;-82
2022/07/19 11:57:27;;;;;;;9.13;5.93;;;38.40;32.70;;;;;;4821898;29;20026;-79
2022/07/19 11:59:57;;;;;;;9.85;6.00;;;38.50;32.70;;;;;;4803167;29;20042;-79
2022/07/19 12:02:23;;;;;;;7.18;5.90;;;38.50;32.60;;;;;;4807426;29;20027;-83
2022/07/19 12:04:49;;;;;;;10.48;6.15;;;38.60;32.60;;;;;;4818773;29;20050;-86
2022/07/19 12:07:17;;;;;;;10.35;7.35;;;38.60;32.50;;;;;;4816399;29;20038;-83
2022/07/19 12:09:43;;;;;;;12.13;6.78;;;38.60;32.40;;;;;;4814554;29;20158;-81
2022/07/19 12:12:16;;;;;;;7.70;6.88;;;38.50;32.40;;;;;;4816228;29;20572;-80
2022/07/19 12:14:43;;;;;;;13.15;6.72;;;38.30;32.40;;;;;;4799951;29;20095;-81
2022/07/19 12:17:14;;;;;;;8.57;5.40;;;38.10;32.60;;;;;;4818102;29;20033;-81
2022/07/19 12:19:43;;;;;;;43.60;6.80;;;38.00;32.70;;;;;;4819133;29;20095;-85
2022/07/19 12:22:33;;;;;;;11.25;6.10;;;38.10;32.80;;;;;;4818764;29;20035;-79
2022/07/19 12:24:59;;;;;;;9.32;6.50;;;38.30;32.70;;;;;;4816101;29;20513;-80
2022/07/19 12:27:27;;;;;;;11.30;6.47;;;38.40;32.70;;;;;;4818019;29;20035;-79
2022/07/19 12:29:55;;;;;;;10.48;6.50;;;38.50;32.60;;;;;;4800476;29;20124;-78
2022/07/19 12:32:27;;;;;;;12.15;6.35;;;38.60;32.40;;;;;;4817763;29;20046;-81
2022/07/19 12:34:59;;;;;;;8.88;6.85;;;38.60;32.30;;;;;;4817374;29;20046;-82
2022/07/19 12:37:26;;;;;;;;;;;38.70;32.40;;;;;;4816113;29;20083;-83
2022/07/19 12:40:10;;;;;;;16.70;6.50;;;38.80;32.50;;;;;;4815268;29;19921;-82
2022/07/19 12:42:45;;;;;;;8.55;6.03;;;38.80;32.30;;;;;;4815125;29;20058;-82
2022/07/19 12:45:15;;;;;;;9.15;6.10;;;38.80;32.50;;;;;;4815784;29;20117;-82
2022/07/19 12:47:41;;;;;;;11.45;6.47;;;38.60;32.60;;;;;;4816241;29;20027;-83
2022/07/19 12:50:17;;;;;;;9.15;5.88;;;38.40;32.80;;;;;;4815492;29;20287;-83
2022/07/19 12:52:43;;;;;;;9.30;7.10;;;38.10;33.00;;;;;;4813995;29;20046;-84
2022/07/19 12:55:09;;;;;;;12.75;7.43;;;38.00;33.30;;;;;;4815822;29;20148;-83